createdAt,value
2018-06-27T00:00:51.502Z,17.40
2018-06-27T00:01:51.494Z,17.60
2018-06-27T00:02:51.491Z,17.80
2018-06-27T00:03:51.481Z,17.50
2018-06-27T00:04:51.471Z,16.80
2018-06-27T00:05:51.460Z,16.70
2018-06-27T00:06:51.453Z,16.00
2018-06-27T00:07:51.444Z,17.50
2018-06-27T00:08:51.442Z,16.70
2018-06-27T00:09:51.436Z,16.70
2018-06-27T00:10:51.438Z,16.60
2018-06-27T00:11:51.414Z,16.40
2018-06-27T00:12:51.409Z,16.40
2018-06-27T00:13:51.403Z,16.90
2018-06-27T00:14:51.391Z,16.50
2018-06-27T00:15:51.385Z,16.70
2018-06-27T00:16:51.379Z,16.90
2018-06-27T00:17:51.370Z,16.50
2018-06-27T00:18:51.364Z,16.80
2018-06-27T00:19:51.355Z,16.30
2018-06-27T00:20:51.349Z,17.50
2018-06-27T00:21:51.347Z,17.30
2018-06-27T00:22:51.333Z,16.50
2018-06-27T00:23:51.331Z,16.80
2018-06-27T00:24:51.320Z,17.80
2018-06-27T00:25:51.310Z,17.40
2018-06-27T00:26:51.304Z,17.80
2018-06-27T00:27:51.308Z,18.00
2018-06-27T00:28:51.293Z,17.50
2018-06-27T00:29:51.285Z,18.70
2018-06-27T00:30:51.274Z,17.80
2018-06-27T00:31:51.264Z,17.80
2018-06-27T00:32:51.262Z,16.30
2018-06-27T00:33:51.314Z,17.10
2018-06-27T00:34:51.247Z,17.70
2018-06-27T00:35:51.236Z,18.50
2018-06-27T00:36:51.234Z,18.20
2018-06-27T00:37:51.228Z,17.10
2018-06-27T00:38:51.213Z,18.50
2018-06-27T00:39:51.205Z,18.10
2018-06-27T00:40:51.199Z,17.80
2018-06-27T00:41:51.195Z,16.90
2018-06-27T00:42:51.185Z,18.30
2018-06-27T00:43:51.179Z,19.10
2018-06-27T00:44:51.169Z,18.80
2018-06-27T00:45:51.163Z,18.20
2018-06-27T00:46:51.151Z,18.50
2018-06-27T00:47:51.144Z,19.00
2018-06-27T00:48:51.139Z,17.50
2018-06-27T00:49:51.151Z,19.10
2018-06-27T00:50:51.126Z,18.80
2018-06-27T00:51:51.116Z,18.70
2018-06-27T00:52:51.105Z,18.00
2018-06-27T00:53:51.097Z,18.70
2018-06-27T00:54:51.101Z,19.20
2018-06-27T00:55:51.082Z,19.00
2018-06-27T00:56:51.081Z,18.00
2018-06-27T00:57:51.069Z,19.00
2018-06-27T00:58:51.057Z,18.70
2018-06-27T00:59:51.053Z,18.60
2018-06-27T01:00:51.056Z,18.90
2018-06-27T01:01:51.055Z,18.40
2018-06-27T01:02:51.039Z,18.50
2018-06-27T01:03:51.023Z,17.90
2018-06-27T01:04:51.016Z,17.90
2018-06-27T01:05:51.016Z,18.30
2018-06-27T01:06:51.000Z,17.80
2018-06-27T01:07:50.990Z,17.70
2018-06-27T01:08:50.987Z,19.80
2018-06-27T01:09:50.977Z,18.80
2018-06-27T01:10:50.974Z,19.00
2018-06-27T01:11:50.962Z,17.80
2018-06-27T01:12:50.955Z,18.60
2018-06-27T01:13:50.945Z,19.10
2018-06-27T01:14:50.935Z,19.40
2018-06-27T01:15:50.931Z,18.10
2018-06-27T01:16:50.927Z,18.20
2018-06-27T01:17:50.921Z,18.80
2018-06-27T01:18:50.911Z,17.90
2018-06-27T01:19:50.903Z,18.00
2018-06-27T01:20:50.892Z,18.80
2018-06-27T01:21:50.882Z,18.40
2018-06-27T01:22:50.877Z,18.40
2018-06-27T01:23:50.870Z,19.00
2018-06-27T01:24:50.863Z,18.10
2018-06-27T01:25:50.853Z,17.40
2018-06-27T01:26:50.845Z,18.70
2018-06-27T01:27:50.837Z,18.60
2018-06-27T01:28:50.827Z,17.70
2018-06-27T01:29:50.831Z,18.60
2018-06-27T01:30:50.817Z,17.90
2018-06-27T01:31:50.811Z,18.20
2018-06-27T01:32:50.803Z,18.50
2018-06-27T01:33:50.791Z,18.20
2018-06-27T01:34:50.783Z,19.10
2018-06-27T01:35:50.777Z,18.40
2018-06-27T01:36:50.772Z,18.30
2018-06-27T01:37:50.761Z,18.70
2018-06-27T01:38:50.758Z,19.10
2018-06-27T01:39:50.746Z,18.80
2018-06-27T01:40:50.736Z,17.50
2018-06-27T01:41:50.735Z,18.00
2018-06-27T01:42:50.728Z,18.50
2018-06-27T01:43:50.727Z,17.60
2018-06-27T01:44:50.708Z,18.30
2018-06-27T01:45:50.701Z,19.50
2018-06-27T01:46:50.692Z,18.60
2018-06-27T01:47:50.683Z,18.20
2018-06-27T01:48:50.681Z,17.90
2018-06-27T01:49:50.668Z,17.80
2018-06-27T01:50:50.667Z,18.40
2018-06-27T01:51:50.656Z,18.60
2018-06-27T01:52:50.647Z,18.70
2018-06-27T01:53:50.638Z,18.30
2018-06-27T01:54:50.628Z,18.60
2018-06-27T01:55:50.620Z,18.90
2018-06-27T01:56:50.618Z,17.30
2018-06-27T01:57:50.606Z,17.40
2018-06-27T01:58:50.597Z,18.20
2018-06-27T01:59:50.591Z,17.60
2018-06-27T02:00:50.586Z,19.30
2018-06-27T02:01:50.577Z,16.80
2018-06-27T02:02:50.564Z,17.80
2018-06-27T02:03:50.558Z,17.90
2018-06-27T02:04:50.555Z,18.00
2018-06-27T02:05:50.546Z,18.10
2018-06-27T02:06:50.538Z,18.20
2018-06-27T02:07:50.529Z,17.80
2018-06-27T02:08:50.543Z,18.60
2018-06-27T02:09:50.510Z,17.90
2018-06-27T02:10:50.500Z,19.20
2018-06-27T02:11:50.499Z,18.00
2018-06-27T02:12:50.495Z,18.20
2018-06-27T02:13:50.481Z,19.00
2018-06-27T02:14:50.502Z,18.80
2018-06-27T02:15:50.463Z,19.50
2018-06-27T02:16:50.456Z,18.50
2018-06-27T02:17:50.448Z,18.60
2018-06-27T02:18:50.446Z,18.80
2018-06-27T02:19:50.436Z,18.60
2018-06-27T02:20:50.428Z,18.90
2018-06-27T02:21:50.418Z,18.40
2018-06-27T02:22:50.407Z,19.30
2018-06-27T02:23:50.403Z,18.80
2018-06-27T02:24:50.392Z,20.20
2018-06-27T02:25:50.391Z,17.90
2018-06-27T02:26:50.383Z,18.30
2018-06-27T02:27:50.372Z,18.60
2018-06-27T02:28:50.366Z,18.90
2018-06-27T02:29:50.357Z,19.00
2018-06-27T02:30:50.349Z,19.40
2018-06-27T02:31:50.340Z,18.00
2018-06-27T02:32:50.336Z,18.50
2018-06-27T02:33:50.329Z,18.70
2018-06-27T02:34:50.316Z,19.10
2018-06-27T02:35:50.306Z,18.80
2018-06-27T02:36:50.297Z,19.30
2018-06-27T02:37:50.345Z,18.30
2018-06-27T02:38:50.283Z,18.90
2018-06-27T02:39:50.276Z,19.00
2018-06-27T02:40:50.286Z,18.70
2018-06-27T02:41:50.267Z,19.00
2018-06-27T02:42:50.249Z,18.40
2018-06-27T02:43:50.249Z,19.40
2018-06-27T02:44:50.235Z,18.00
2018-06-27T02:45:50.244Z,17.80
2018-06-27T02:46:50.227Z,19.00
2018-06-27T02:47:50.216Z,18.30
2018-06-27T02:48:50.213Z,19.50
2018-06-27T02:49:50.263Z,18.90
2018-06-27T02:50:50.186Z,19.40
2018-06-27T02:51:50.182Z,18.70
2018-06-27T02:52:50.172Z,19.10
2018-06-27T02:53:50.170Z,19.80
2018-06-27T02:54:50.184Z,17.80
2018-06-27T02:55:50.157Z,18.80
2018-06-27T02:56:50.144Z,17.00
2018-06-27T02:57:50.134Z,19.40
2018-06-27T02:58:50.127Z,19.40
2018-06-27T02:59:50.143Z,18.20
2018-06-27T03:00:50.109Z,18.50
2018-06-27T03:01:50.106Z,18.60
2018-06-27T03:02:50.095Z,18.90
2018-06-27T03:03:50.087Z,19.70
2018-06-27T03:04:50.078Z,18.40
2018-06-27T03:05:50.073Z,19.30
2018-06-27T03:06:50.061Z,18.00
2018-06-27T03:07:50.053Z,17.80
2018-06-27T03:08:50.053Z,19.70
2018-06-27T03:09:50.039Z,18.60
2018-06-27T03:10:50.033Z,19.10
2018-06-27T03:11:50.025Z,19.20
2018-06-27T03:12:50.014Z,20.00
2018-06-27T03:13:50.007Z,19.80
2018-06-27T03:14:50.031Z,18.70
2018-06-27T03:15:49.997Z,19.70
2018-06-27T03:16:49.989Z,19.80
2018-06-27T03:17:49.974Z,19.90
2018-06-27T03:18:49.968Z,19.40
2018-06-27T03:19:49.961Z,19.50
2018-06-27T03:20:49.953Z,19.20
2018-06-27T03:21:49.949Z,19.60
2018-06-27T03:22:49.937Z,18.60
2018-06-27T03:23:49.929Z,20.00
2018-06-27T03:24:49.922Z,20.40
2018-06-27T03:25:49.913Z,19.20
2018-06-27T03:26:49.909Z,20.10
2018-06-27T03:27:49.907Z,19.70
2018-06-27T03:28:49.891Z,19.20
2018-06-27T03:29:49.889Z,19.60
2018-06-27T03:30:49.875Z,20.40
2018-06-27T03:31:49.866Z,20.60
2018-06-27T03:32:49.856Z,20.90
2018-06-27T03:33:49.956Z,20.20
2018-06-27T03:34:49.843Z,19.30
2018-06-27T03:35:49.839Z,19.60
2018-06-27T03:36:49.831Z,19.70
2018-06-27T03:37:49.820Z,20.10
2018-06-27T03:38:49.816Z,20.20
2018-06-27T03:39:49.804Z,20.70
2018-06-27T03:40:49.795Z,19.80
2018-06-27T03:41:49.797Z,20.80
2018-06-27T03:42:49.779Z,19.60
2018-06-27T03:43:49.772Z,19.70
2018-06-27T03:44:49.767Z,20.20
2018-06-27T03:45:49.757Z,19.70
2018-06-27T03:46:49.742Z,20.50
2018-06-27T03:47:49.735Z,19.90
2018-06-27T03:48:49.733Z,20.70
2018-06-27T03:49:49.730Z,20.20
2018-06-27T03:50:49.720Z,20.50
2018-06-27T03:51:49.705Z,20.00
2018-06-27T03:52:49.704Z,20.70
2018-06-27T03:53:49.689Z,20.60
2018-06-27T03:54:49.679Z,20.40
2018-06-27T03:55:49.674Z,20.40
2018-06-27T03:56:49.667Z,20.90
2018-06-27T03:57:49.662Z,20.70
2018-06-27T03:58:49.652Z,19.90
2018-06-27T03:59:49.644Z,20.20
2018-06-27T04:00:49.633Z,20.50
2018-06-27T04:01:49.630Z,20.20
2018-06-27T04:02:49.621Z,20.60
2018-06-27T04:03:49.614Z,20.30
2018-06-27T04:04:50.438Z,20.30
2018-06-27T04:05:49.594Z,20.30
2018-06-27T04:06:49.587Z,19.30
2018-06-27T04:07:49.585Z,19.90
2018-06-27T04:08:49.571Z,19.80
2018-06-27T04:09:49.570Z,20.40
2018-06-27T04:10:49.555Z,19.90
2018-06-27T04:11:49.552Z,20.70
2018-06-27T04:12:49.610Z,21.00
2018-06-27T04:13:49.535Z,19.70
2018-06-27T04:14:49.531Z,19.40
2018-06-27T04:15:49.514Z,19.90
2018-06-27T04:16:49.515Z,19.40
2018-06-27T04:17:49.508Z,20.30
2018-06-27T04:18:49.491Z,20.70
2018-06-27T04:19:49.485Z,20.10
2018-06-27T04:20:49.478Z,20.70
2018-06-27T04:21:49.467Z,20.80
2018-06-27T04:22:49.463Z,20.00
2018-06-27T04:23:49.451Z,20.00
2018-06-27T04:24:49.443Z,19.90
2018-06-27T04:25:49.444Z,20.10
2018-06-27T04:26:49.442Z,20.20
2018-06-27T04:27:49.421Z,19.30
2018-06-27T04:28:49.410Z,20.40
2018-06-27T04:29:49.412Z,20.90
2018-06-27T04:30:49.393Z,19.80
2018-06-27T04:31:49.395Z,19.90
2018-06-27T04:32:49.386Z,20.10
2018-06-27T04:33:49.376Z,21.00
2018-06-27T04:34:49.362Z,20.40
2018-06-27T04:35:49.413Z,20.20
2018-06-27T04:36:49.357Z,19.20
2018-06-27T04:37:49.346Z,21.00
2018-06-27T04:38:49.336Z,20.10
2018-06-27T04:39:49.329Z,20.10
2018-06-27T04:40:49.322Z,19.40
2018-06-27T04:41:49.315Z,19.40
2018-06-27T04:42:49.303Z,19.80
2018-06-27T04:43:49.303Z,19.00
2018-06-27T04:44:49.286Z,19.50
2018-06-27T04:45:49.280Z,20.20
2018-06-27T04:46:49.273Z,19.50
2018-06-27T04:47:49.269Z,19.20
2018-06-27T04:48:49.260Z,19.40
2018-06-27T04:49:49.248Z,19.10
2018-06-27T04:50:49.244Z,19.00
2018-06-27T04:51:49.237Z,19.70
2018-06-27T04:52:49.230Z,19.70
2018-06-27T04:53:49.229Z,18.50
2018-06-27T04:54:49.228Z,18.60
2018-06-27T04:55:49.209Z,19.20
2018-06-27T04:56:49.197Z,17.90
2018-06-27T04:57:49.197Z,18.80
2018-06-27T04:58:49.187Z,17.60
2018-06-27T04:59:49.177Z,19.40
2018-06-27T05:00:49.171Z,18.40
2018-06-27T05:01:49.257Z,19.10
2018-06-27T05:02:49.154Z,19.70
2018-06-27T05:03:49.145Z,18.60
2018-06-27T05:04:49.138Z,19.30
2018-06-27T05:05:49.134Z,19.00
2018-06-27T05:06:49.123Z,19.00
2018-06-27T05:07:49.119Z,18.70
2018-06-27T05:08:49.112Z,18.20
2018-06-27T05:09:49.102Z,19.10
2018-06-27T05:10:49.092Z,18.60
2018-06-27T05:11:49.085Z,18.60
2018-06-27T05:12:49.079Z,18.70
2018-06-27T05:13:49.073Z,17.90
2018-06-27T05:14:49.065Z,18.20
2018-06-27T05:15:49.065Z,17.40
2018-06-27T05:16:49.054Z,18.80
2018-06-27T05:17:49.043Z,18.10
2018-06-27T05:18:49.035Z,17.20
2018-06-27T05:19:49.028Z,18.80
2018-06-27T05:20:49.020Z,18.30
2018-06-27T05:21:49.079Z,18.80
2018-06-27T05:22:49.023Z,18.40
2018-06-27T05:23:49.001Z,19.40
2018-06-27T05:24:48.997Z,16.80
2018-06-27T05:25:48.991Z,17.70
2018-06-27T05:26:48.979Z,18.40
2018-06-27T05:27:48.973Z,17.00
2018-06-27T05:28:48.971Z,18.00
2018-06-27T05:29:48.960Z,18.50
2018-06-27T05:30:49.465Z,17.60
2018-06-27T05:31:48.944Z,17.60
2018-06-27T05:32:48.936Z,18.30
2018-06-27T05:33:48.965Z,17.80
2018-06-27T05:34:48.924Z,17.80
2018-06-27T05:35:48.923Z,16.90
2018-06-27T05:36:48.914Z,16.40
2018-06-27T05:37:48.910Z,16.30
2018-06-27T05:38:48.897Z,16.10
2018-06-27T05:39:48.899Z,15.50
2018-06-27T05:40:48.885Z,16.10
2018-06-27T05:41:48.887Z,16.00
2018-06-27T05:42:48.877Z,15.20
2018-06-27T05:43:48.870Z,14.70
2018-06-27T05:44:48.870Z,15.00
2018-06-27T05:45:48.865Z,14.50
2018-06-27T05:46:48.859Z,14.80
2018-06-27T05:47:48.850Z,14.60
2018-06-27T05:48:48.841Z,14.80
2018-06-27T05:49:48.837Z,14.50
2018-06-27T05:50:48.836Z,14.60
2018-06-27T05:51:48.830Z,13.30
2018-06-27T05:52:48.821Z,14.30
2018-06-27T05:53:48.814Z,13.40
2018-06-27T05:54:48.810Z,13.40
2018-06-27T05:55:48.806Z,13.40
2018-06-27T05:56:48.807Z,13.20
2018-06-27T05:57:48.801Z,13.80
2018-06-27T05:58:48.798Z,13.10
2018-06-27T05:59:48.791Z,13.70
2018-06-27T06:00:48.787Z,13.10
2018-06-27T06:01:48.783Z,12.90
2018-06-27T06:02:48.783Z,12.50
2018-06-27T06:03:48.783Z,13.30
2018-06-27T06:04:48.776Z,12.50
2018-06-27T06:05:48.773Z,12.40
2018-06-27T06:06:48.765Z,13.00
2018-06-27T06:07:48.766Z,13.00
2018-06-27T06:08:48.760Z,13.10
2018-06-27T06:09:48.761Z,11.80
2018-06-27T06:10:48.757Z,12.40
2018-06-27T06:11:48.759Z,12.80
2018-06-27T06:12:48.754Z,11.60
2018-06-27T06:13:48.746Z,11.90
2018-06-27T06:14:48.743Z,12.40
2018-06-27T06:15:48.742Z,12.00
2018-06-27T06:16:48.741Z,12.10
2018-06-27T06:17:48.743Z,11.60
2018-06-27T06:18:48.736Z,11.80
2018-06-27T06:19:48.776Z,11.80
2018-06-27T06:20:48.730Z,11.90
2018-06-27T06:21:48.728Z,11.70
2018-06-27T06:22:48.733Z,10.80
2018-06-27T06:23:48.726Z,12.10
2018-06-27T06:24:48.725Z,10.90
2018-06-27T06:25:48.735Z,12.10
2018-06-27T06:26:48.716Z,11.90
2018-06-27T06:27:48.713Z,12.20
2018-06-27T06:28:48.715Z,11.50
2018-06-27T06:29:48.715Z,11.20
2018-06-27T06:30:48.712Z,10.50
2018-06-27T06:31:48.711Z,11.60
2018-06-27T06:32:48.711Z,11.70
2018-06-27T06:33:48.705Z,11.40
2018-06-27T06:34:48.703Z,11.00
2018-06-27T06:35:48.706Z,10.80
2018-06-27T06:36:48.956Z,11.80
2018-06-27T06:37:49.159Z,11.20
2018-06-27T06:38:49.038Z,11.90
2018-06-27T06:39:48.899Z,11.40
2018-06-27T06:40:49.169Z,11.40
2018-06-27T06:41:48.700Z,12.10
2018-06-27T06:42:48.704Z,11.20
2018-06-27T06:43:48.724Z,11.10
2018-06-27T06:44:48.694Z,11.30
2018-06-27T06:45:48.700Z,10.80
2018-06-27T06:46:48.745Z,10.40
2018-06-27T06:47:48.710Z,10.70
2018-06-27T06:48:48.689Z,11.20
2018-06-27T06:49:48.687Z,10.90
2018-06-27T06:50:48.708Z,10.40
2018-06-27T06:51:48.693Z,10.40
2018-06-27T06:52:48.694Z,10.90
2018-06-27T06:53:48.695Z,11.20
2018-06-27T06:54:48.690Z,11.00
2018-06-27T06:55:48.685Z,10.40
2018-06-27T06:56:48.687Z,9.50
2018-06-27T06:57:48.688Z,11.00
2018-06-27T06:58:48.742Z,9.90
2018-06-27T06:59:48.686Z,10.00
2018-06-27T07:00:48.686Z,11.20
2018-06-27T07:01:48.693Z,10.80
2018-06-27T07:02:48.687Z,10.90
2018-06-27T07:03:48.693Z,11.10
2018-06-27T07:04:48.719Z,11.40
2018-06-27T07:05:48.692Z,9.80
2018-06-27T07:06:48.696Z,10.20
2018-06-27T07:07:48.688Z,10.80
2018-06-27T07:08:48.696Z,10.10
2018-06-27T07:09:48.691Z,8.90
2018-06-27T07:10:48.690Z,10.00
2018-06-27T07:11:48.693Z,10.60
2018-06-27T07:12:48.694Z,10.80
2018-06-27T07:13:48.696Z,10.10
2018-06-27T07:14:48.695Z,10.70
2018-06-27T07:15:48.697Z,10.00
2018-06-27T07:16:48.696Z,10.20
2018-06-27T07:17:48.726Z,10.50
2018-06-27T07:18:48.703Z,10.80
2018-06-27T07:19:48.704Z,9.90
2018-06-27T07:20:48.705Z,9.90
2018-06-27T07:21:48.706Z,10.70
2018-06-27T07:22:48.708Z,9.20
2018-06-27T07:23:48.710Z,9.60
2018-06-27T07:24:48.711Z,9.30
2018-06-27T07:25:48.711Z,8.70
2018-06-27T07:26:48.714Z,9.20
2018-06-27T07:27:48.716Z,9.80
2018-06-27T07:28:48.777Z,9.30
2018-06-27T07:29:48.723Z,9.60
2018-06-27T07:30:48.721Z,8.90
2018-06-27T07:31:48.727Z,9.40
2018-06-27T07:32:48.730Z,8.80
2018-06-27T07:33:48.732Z,9.20
2018-06-27T07:34:48.735Z,8.60
2018-06-27T07:35:48.735Z,9.10
2018-06-27T07:36:48.736Z,8.50
2018-06-27T07:37:48.739Z,9.20
2018-06-27T07:38:48.744Z,8.50
2018-06-27T07:39:48.749Z,8.50
2018-06-27T07:40:48.754Z,8.80
2018-06-27T07:41:48.757Z,8.70
2018-06-27T07:42:48.758Z,9.00
2018-06-27T07:43:48.762Z,9.30
2018-06-27T07:44:48.768Z,9.70
2018-06-27T07:45:48.766Z,8.80
2018-06-27T07:46:48.770Z,8.80
2018-06-27T07:47:48.776Z,8.90
2018-06-27T07:48:48.780Z,8.80
2018-06-27T07:49:48.863Z,9.20
2018-06-27T07:50:48.783Z,8.30
2018-06-27T07:51:48.785Z,8.60
2018-06-27T07:52:48.797Z,8.10
2018-06-27T07:53:48.797Z,8.20
2018-06-27T07:54:48.799Z,9.30
2018-06-27T07:55:48.803Z,9.00
2018-06-27T07:56:48.818Z,8.90
2018-06-27T07:57:48.806Z,7.80
2018-06-27T07:58:48.810Z,8.90
2018-06-27T07:59:48.815Z,8.40
2018-06-27T08:00:48.818Z,8.50
2018-06-27T08:01:48.828Z,7.90
2018-06-27T08:02:48.830Z,8.50
2018-06-27T08:03:48.836Z,8.90
2018-06-27T08:04:48.839Z,8.50
2018-06-27T08:05:48.906Z,8.40
2018-06-27T08:06:48.849Z,7.90
2018-06-27T08:07:48.860Z,9.00
2018-06-27T08:08:48.855Z,9.20
2018-06-27T08:09:48.859Z,9.50
2018-06-27T08:10:48.858Z,7.90
2018-06-27T08:11:48.866Z,8.20
2018-06-27T08:12:48.869Z,7.50
2018-06-27T08:13:48.873Z,7.70
2018-06-27T08:14:48.880Z,8.10
2018-06-27T08:15:48.886Z,7.90
2018-06-27T08:16:48.895Z,8.10
2018-06-27T08:17:48.983Z,7.70
2018-06-27T08:18:48.894Z,6.90
2018-06-27T08:19:48.899Z,7.80
2018-06-27T08:20:48.904Z,8.50
2018-06-27T08:21:48.908Z,9.20
2018-06-27T08:22:48.916Z,7.50
2018-06-27T08:23:48.921Z,7.10
2018-06-27T08:24:48.926Z,7.60
2018-06-27T08:25:48.926Z,8.00
2018-06-27T08:26:48.955Z,7.20
2018-06-27T08:27:48.937Z,7.50
2018-06-27T08:28:48.944Z,7.50
2018-06-27T08:29:48.952Z,7.40
2018-06-27T08:30:48.967Z,7.70
2018-06-27T08:31:48.958Z,7.30
2018-06-27T08:32:48.958Z,7.00
2018-06-27T08:33:48.967Z,7.60
2018-06-27T08:34:48.972Z,8.20
2018-06-27T08:35:48.977Z,8.00
2018-06-27T08:36:48.981Z,7.80
2018-06-27T08:37:48.989Z,7.70
2018-06-27T08:38:48.989Z,6.90
2018-06-27T08:39:48.995Z,7.70
2018-06-27T08:40:48.999Z,7.10
2018-06-27T08:41:49.006Z,6.80
2018-06-27T08:42:49.015Z,6.80
2018-06-27T08:43:49.070Z,7.90
2018-06-27T08:44:49.021Z,7.40
2018-06-27T08:45:49.036Z,6.50
2018-06-27T08:46:49.032Z,6.50
2018-06-27T08:47:49.038Z,7.00
2018-06-27T08:48:49.065Z,7.20
2018-06-27T08:49:49.160Z,6.70
2018-06-27T08:50:49.061Z,6.80
2018-06-27T08:51:49.064Z,6.80
2018-06-27T08:52:49.072Z,6.30
2018-06-27T08:53:49.077Z,6.40
2018-06-27T08:54:49.084Z,7.40
2018-06-27T08:55:49.114Z,6.70
2018-06-27T08:56:49.104Z,7.00
2018-06-27T08:57:49.116Z,6.90
2018-06-27T08:58:49.167Z,6.20
2018-06-27T08:59:49.116Z,6.70
2018-06-27T09:00:49.123Z,6.10
2018-06-27T09:01:49.130Z,6.50
2018-06-27T09:02:49.138Z,6.00
2018-06-27T09:03:49.146Z,6.80
2018-06-27T09:04:49.151Z,5.60
2018-06-27T09:05:49.159Z,6.10
2018-06-27T09:06:49.167Z,5.60
2018-06-27T09:07:49.192Z,5.90
2018-06-27T09:08:49.181Z,6.50
2018-06-27T09:09:49.192Z,6.40
2018-06-27T09:10:49.200Z,6.20
2018-06-27T09:11:49.204Z,6.00
2018-06-27T09:12:49.212Z,5.60
2018-06-27T09:13:49.218Z,6.00
2018-06-27T09:14:49.221Z,5.60
2018-06-27T09:15:49.230Z,5.70
2018-06-27T09:16:49.235Z,6.70
2018-06-27T09:17:49.249Z,5.80
2018-06-27T09:18:49.256Z,6.00
2018-06-27T09:19:49.265Z,5.60
2018-06-27T09:20:49.265Z,6.00
2018-06-27T09:21:49.272Z,6.00
2018-06-27T09:22:49.281Z,6.00
2018-06-27T09:23:49.292Z,5.50
2018-06-27T09:24:49.300Z,5.70
2018-06-27T09:25:49.308Z,5.50
2018-06-27T09:26:49.313Z,5.30
2018-06-27T09:27:49.323Z,4.50
2018-06-27T09:28:49.326Z,5.10
2018-06-27T09:29:49.333Z,5.40
2018-06-27T09:30:49.348Z,5.40
2018-06-27T09:31:49.355Z,5.00
2018-06-27T09:32:49.361Z,5.40
2018-06-27T09:33:49.367Z,5.70
2018-06-27T09:34:49.370Z,5.50
2018-06-27T09:35:49.390Z,5.70
2018-06-27T09:36:49.386Z,5.00
2018-06-27T09:37:49.395Z,4.90
2018-06-27T09:38:49.408Z,5.00
2018-06-27T09:39:49.416Z,5.40
2018-06-27T09:40:49.424Z,6.10
2018-06-27T09:41:49.473Z,5.40
2018-06-27T09:42:49.436Z,4.90
2018-06-27T09:43:49.443Z,4.90
2018-06-27T09:44:49.456Z,4.80
2018-06-27T09:45:49.463Z,5.10
2018-06-27T09:46:49.471Z,5.70
2018-06-27T09:47:49.530Z,4.90
2018-06-27T09:48:49.484Z,5.00
2018-06-27T09:49:49.496Z,5.80
2018-06-27T09:50:49.506Z,5.60
2018-06-27T09:51:49.513Z,4.80
2018-06-27T09:52:49.517Z,5.30
2018-06-27T09:53:49.526Z,4.90
2018-06-27T09:54:49.552Z,4.60
2018-06-27T09:55:49.540Z,4.90
2018-06-27T09:56:49.600Z,4.30
2018-06-27T09:57:49.557Z,5.50
2018-06-27T09:58:49.570Z,5.10
2018-06-27T09:59:49.575Z,5.40
2018-06-27T10:00:50.147Z,5.40
2018-06-27T10:01:49.592Z,5.20
2018-06-27T10:02:49.595Z,5.20
2018-06-27T10:03:49.606Z,5.00
2018-06-27T10:04:49.618Z,5.10
2018-06-27T10:05:49.626Z,4.40
2018-06-27T10:06:49.629Z,4.90
2018-06-27T10:07:49.689Z,4.80
2018-06-27T10:08:49.658Z,5.30
2018-06-27T10:09:49.652Z,6.10
2018-06-27T10:10:49.662Z,5.40
2018-06-27T10:11:49.676Z,6.00
2018-06-27T10:12:49.684Z,5.70
2018-06-27T10:13:49.694Z,4.70
2018-06-27T10:14:49.693Z,5.30
2018-06-27T10:15:49.701Z,4.90
2018-06-27T10:16:49.725Z,4.00
2018-06-27T10:17:49.717Z,4.20
2018-06-27T10:18:49.726Z,4.10
2018-06-27T10:19:49.737Z,4.40
2018-06-27T10:20:49.738Z,4.80
2018-06-27T10:21:49.768Z,4.30
2018-06-27T10:22:49.755Z,4.30
2018-06-27T10:23:49.765Z,4.00
2018-06-27T10:24:49.774Z,3.80
2018-06-27T10:25:49.800Z,4.30
2018-06-27T10:26:49.815Z,3.90
2018-06-27T10:27:49.795Z,4.60
2018-06-27T10:28:49.808Z,4.10
2018-06-27T10:29:49.821Z,4.10
2018-06-27T10:30:49.823Z,3.90
2018-06-27T10:31:49.834Z,3.90
2018-06-27T10:32:49.837Z,3.30
2018-06-27T10:33:49.849Z,3.50
2018-06-27T10:34:49.926Z,3.70
2018-06-27T10:35:50.028Z,3.30
2018-06-27T10:36:49.875Z,3.20
2018-06-27T10:37:49.911Z,3.00
2018-06-27T10:38:49.892Z,3.50
2018-06-27T10:39:49.917Z,3.80
2018-06-27T10:40:49.913Z,3.40
2018-06-27T10:41:49.921Z,3.50
2018-06-27T10:42:49.925Z,3.30
2018-06-27T10:43:49.938Z,3.00
2018-06-27T10:44:49.945Z,3.40
2018-06-27T10:45:49.956Z,3.50
2018-06-27T10:46:49.967Z,3.90
2018-06-27T10:47:49.980Z,3.20
2018-06-27T10:48:49.991Z,3.20
2018-06-27T10:49:49.996Z,3.40
2018-06-27T10:50:50.001Z,3.20
2018-06-27T10:51:50.009Z,2.80
2018-06-27T10:52:50.019Z,2.80
2018-06-27T10:53:50.036Z,3.00
2018-06-27T10:54:50.048Z,3.20
2018-06-27T10:55:50.048Z,3.20
2018-06-27T10:56:50.056Z,3.10
2018-06-27T10:57:50.065Z,3.30
2018-06-27T10:58:50.072Z,3.00
2018-06-27T10:59:50.087Z,2.90
2018-06-27T11:00:50.090Z,3.20
2018-06-27T11:01:50.101Z,3.10
2018-06-27T11:02:50.109Z,3.60
2018-06-27T11:03:50.116Z,2.80
2018-06-27T11:04:50.122Z,2.90
2018-06-27T11:05:50.144Z,3.10
2018-06-27T11:06:50.141Z,2.80
2018-06-27T11:07:50.155Z,3.40
2018-06-27T11:08:50.161Z,2.90
2018-06-27T11:09:50.174Z,2.80
2018-06-27T11:10:50.182Z,2.70
2018-06-27T11:11:50.188Z,2.50
2018-06-27T11:12:50.195Z,2.80
2018-06-27T11:13:50.219Z,3.30
2018-06-27T11:14:50.213Z,2.80
2018-06-27T11:15:50.220Z,2.50
2018-06-27T11:16:50.229Z,2.20
2018-06-27T11:17:50.239Z,2.10
2018-06-27T11:18:50.244Z,2.40
2018-06-27T11:19:50.257Z,2.30
2018-06-27T11:20:50.261Z,2.20
2018-06-27T11:21:50.299Z,2.30
2018-06-27T11:22:50.283Z,2.10
2018-06-27T11:23:50.293Z,2.10
2018-06-27T11:24:50.300Z,2.30
2018-06-27T11:25:50.304Z,2.30
2018-06-27T11:26:50.321Z,2.00
2018-06-27T11:27:50.325Z,2.10
2018-06-27T11:28:50.348Z,2.10
2018-06-27T11:29:50.346Z,2.40
2018-06-27T11:30:50.354Z,1.90
2018-06-27T11:31:50.368Z,2.20
2018-06-27T11:32:50.388Z,1.70
2018-06-27T11:33:50.369Z,1.90
2018-06-27T11:34:50.381Z,1.90
2018-06-27T11:35:50.388Z,1.70
2018-06-27T11:36:50.398Z,1.90
2018-06-27T11:37:50.407Z,1.90
2018-06-27T11:38:50.487Z,2.10
2018-06-27T11:39:50.420Z,2.00
2018-06-27T11:40:50.425Z,2.30
2018-06-27T11:41:50.431Z,2.00
2018-06-27T11:42:50.438Z,1.90
2018-06-27T11:43:50.451Z,1.90
2018-06-27T11:44:50.504Z,1.80
2018-06-27T11:45:50.461Z,1.80
2018-06-27T11:46:50.472Z,1.90
2018-06-27T11:47:50.485Z,1.90
2018-06-27T11:48:50.490Z,1.70
2018-06-27T11:49:50.499Z,2.00
2018-06-27T11:50:50.501Z,2.10
2018-06-27T11:51:50.510Z,2.20
2018-06-27T11:52:50.513Z,1.80
2018-06-27T11:53:50.520Z,1.90
2018-06-27T11:54:50.532Z,1.90
2018-06-27T11:55:50.557Z,1.90
2018-06-27T11:56:50.547Z,2.10
2018-06-27T11:57:50.551Z,1.80
2018-06-27T11:58:50.558Z,1.70
2018-06-27T11:59:50.572Z,1.80
2018-06-27T12:00:50.573Z,1.80
2018-06-27T12:01:50.576Z,1.70
2018-06-27T12:02:50.596Z,1.70
2018-06-27T12:03:50.592Z,1.90
2018-06-27T12:04:51.248Z,1.90
2018-06-27T12:05:50.607Z,1.70
2018-06-27T12:06:50.614Z,2.00
2018-06-27T12:07:50.624Z,1.80
2018-06-27T12:08:50.627Z,1.80
2018-06-27T12:09:50.651Z,1.80
2018-06-27T12:10:50.642Z,1.80
2018-06-27T12:11:50.648Z,2.10
2018-06-27T12:12:50.657Z,2.00
2018-06-27T12:13:50.659Z,2.10
2018-06-27T12:14:50.663Z,2.00
2018-06-27T12:15:50.670Z,1.80
2018-06-27T12:16:50.717Z,1.90
2018-06-27T12:17:50.686Z,2.30
2018-06-27T12:18:50.697Z,2.00
2018-06-27T12:19:50.697Z,2.00
2018-06-27T12:20:50.704Z,2.20
2018-06-27T12:21:50.707Z,1.90
2018-06-27T12:22:50.715Z,1.80
2018-06-27T12:23:50.745Z,2.00
2018-06-27T12:24:50.729Z,1.80
2018-06-27T12:25:50.739Z,1.80
2018-06-27T12:26:50.740Z,1.80
2018-06-27T12:27:50.741Z,1.90
2018-06-27T12:28:50.749Z,1.90
2018-06-27T12:29:50.758Z,1.80
2018-06-27T12:30:50.769Z,2.10
2018-06-27T12:31:50.781Z,2.20
2018-06-27T12:32:50.784Z,2.10
2018-06-27T12:33:50.785Z,2.00
2018-06-27T12:34:51.774Z,1.80
2018-06-27T12:35:50.793Z,2.00
2018-06-27T12:36:50.808Z,1.80
2018-06-27T12:37:50.811Z,1.90
2018-06-27T12:38:50.811Z,1.60
2018-06-27T12:39:50.816Z,1.90
2018-06-27T12:40:50.824Z,1.80
2018-06-27T12:41:50.827Z,2.10
2018-06-27T12:42:50.834Z,1.90
2018-06-27T12:43:50.835Z,2.10
2018-06-27T12:44:50.886Z,1.90
2018-06-27T12:45:50.855Z,1.70
2018-06-27T12:46:50.855Z,1.70
2018-06-27T12:47:50.860Z,2.00
2018-06-27T12:48:50.867Z,1.60
2018-06-27T12:49:50.889Z,1.90
2018-06-27T12:50:50.879Z,1.70
2018-06-27T12:51:50.888Z,2.00
2018-06-27T12:52:50.893Z,1.90
2018-06-27T12:53:50.897Z,2.00
2018-06-27T12:54:50.903Z,1.90
2018-06-27T12:55:50.906Z,1.80
2018-06-27T12:56:50.910Z,1.80
2018-06-27T12:57:50.919Z,1.80
2018-06-27T12:58:50.926Z,2.20
2018-06-27T12:59:50.969Z,1.70
2018-06-27T13:00:50.937Z,1.70
2018-06-27T13:01:50.942Z,1.80
2018-06-27T13:02:50.944Z,1.90
2018-06-27T13:03:50.954Z,1.90